Cheek, Texas
Current Conditions -  °F | °C
As of 3:53 PM on Thursday 23 Oct 2014 (Local Time) from KBPT Reporting Station
Clear Clear  
Wind Chill: 78°   Ceiling: Unl
Heat Index: 79°   Visibility: 10mi
Dew Point: 54°   Wind: 8mph
Humidity: 43%   Direction: 360°N
Pressure: 30.05"   Gusts: NA
Location:  29.9571°N, 94.1363°W
Report Text: KBPT 232053Z 36007KT 10SM CLR 26/12 A3005 RMK AO2 SLP176 T02560122 56021
Loading
Personal Weather Stations






























Interactive Weather Map
Tropical Storm Tracking
New forecast layout! Learn more

10-Day Weather Forecast

Advertisements
Track Severe Weather on mobile